createdAt,value
2022-11-17T00:01:39.294Z,45.68
2022-11-17T00:06:41.230Z,45.20
2022-11-17T00:12:06.541Z,45.36
2022-11-17T00:17:10.817Z,45.24
2022-11-17T00:22:12.574Z,45.33
2022-11-17T00:27:15.042Z,45.22
2022-11-17T00:32:36.743Z,45.08
2022-11-17T00:38:01.230Z,45.04
2022-11-17T00:43:03.078Z,45.35
2022-11-17T00:48:05.139Z,45.24
2022-11-17T00:53:07.328Z,45.47
2022-11-17T00:58:09.292Z,45.22
2022-11-17T01:03:10.997Z,45.41
2022-11-17T01:08:12.900Z,45.29
2022-11-17T01:13:18.071Z,45.11
2022-11-17T01:18:22.992Z,45.50
2022-11-17T01:23:24.921Z,45.47
2022-11-17T01:28:26.795Z,45.33
2022-11-17T01:33:28.877Z,45.45
2022-11-17T01:38:31.519Z,45.22
2022-11-17T01:43:50.264Z,45.10
2022-11-17T01:48:55.743Z,45.02
2022-11-17T01:53:58.409Z,45.00
2022-11-17T01:59:16.314Z,45.11
2022-11-17T02:04:18.100Z,45.06
2022-11-17T02:09:21.413Z,45.13
2022-11-17T02:14:23.319Z,45.24
2022-11-17T02:19:28.066Z,44.97
2022-11-17T02:25:07.155Z,45.22
2022-11-17T02:30:15.380Z,45.53
2022-11-17T02:35:27.592Z,45.38
2022-11-17T02:40:37.793Z,45.24
2022-11-17T02:45:50.824Z,45.22
2022-11-17T02:50:55.064Z,45.09
2022-11-17T02:56:00.168Z,45.35
2022-11-17T03:01:09.105Z,45.43
2022-11-17T03:06:29.924Z,45.40
2022-11-17T03:11:56.368Z,45.54
2022-11-17T03:17:16.799Z,45.42
2022-11-17T03:22:25.385Z,45.06
2022-11-17T03:27:34.459Z,45.35
2022-11-17T03:32:39.643Z,45.51
2022-11-17T03:37:49.896Z,45.37
2022-11-17T03:42:56.087Z,45.17
2022-11-17T03:48:04.519Z,45.34
2022-11-17T03:53:06.906Z,45.41
2022-11-17T03:58:14.817Z,45.30
2022-11-17T04:03:16.837Z,45.34
2022-11-17T04:08:19.953Z,45.42
2022-11-17T04:13:40.366Z,45.34
2022-11-17T04:18:42.257Z,45.47
2022-11-17T04:23:44.180Z,45.59
2022-11-17T04:28:49.486Z,45.48
2022-11-17T04:34:02.308Z,45.57
2022-11-17T04:39:04.459Z,45.67
2022-11-17T04:44:08.145Z,45.46
2022-11-17T04:49:10.025Z,45.39
2022-11-17T04:54:13.453Z,45.36
2022-11-17T04:59:15.378Z,45.67
2022-11-17T05:04:39.029Z,45.04
2022-11-17T05:09:40.960Z,45.31
2022-11-17T05:14:42.967Z,45.59
2022-11-17T05:19:46.944Z,45.49
2022-11-17T05:24:48.935Z,45.84
2022-11-17T05:29:50.872Z,45.79
2022-11-17T05:34:52.895Z,45.74
2022-11-17T05:39:55.080Z,45.66
2022-11-17T05:44:57.050Z,45.41
2022-11-17T05:49:59.221Z,45.90
2022-11-17T05:55:01.363Z,45.76
2022-11-17T06:00:04.977Z,45.36
2022-11-17T06:05:07.812Z,45.55
2022-11-17T06:10:10.330Z,45.84
2022-11-17T06:15:12.355Z,45.55
2022-11-17T06:20:22.173Z,45.41
2022-11-17T06:25:24.581Z,45.69
2022-11-17T06:30:27.455Z,45.40
2022-11-17T06:35:33.711Z,45.57
2022-11-17T06:40:35.635Z,45.27
2022-11-17T06:45:45.850Z,45.74
2022-11-17T06:50:48.472Z,45.65
2022-11-17T06:55:54.171Z,45.91
2022-11-17T07:01:02.241Z,45.85
2022-11-17T07:06:06.035Z,46.01
2022-11-17T07:11:13.928Z,45.72
2022-11-17T07:16:23.265Z,46.11
2022-11-17T07:21:25.754Z,46.02
2022-11-17T07:26:27.834Z,46.08
2022-11-17T07:31:29.713Z,46.70
2022-11-17T07:36:31.673Z,46.57
2022-11-17T07:41:33.476Z,46.89
2022-11-17T07:46:35.614Z,46.91
2022-11-17T07:51:37.887Z,47.04
2022-11-17T07:56:39.818Z,46.26
2022-11-17T08:01:42.454Z,46.20
2022-11-17T08:06:44.448Z,46.14
2022-11-17T08:11:46.452Z,46.18
2022-11-17T08:16:48.493Z,46.20
2022-11-17T08:21:51.329Z,46.22
2022-11-17T08:26:53.860Z,46.51
2022-11-17T08:31:55.915Z,46.56
2022-11-17T08:36:57.990Z,46.66
2022-11-17T08:42:00.007Z,46.80
2022-11-17T08:47:01.923Z,46.66
2022-11-17T08:52:04.068Z,46.35
2022-11-17T08:57:06.269Z,46.10
2022-11-17T09:02:08.405Z,46.09
2022-11-17T09:07:10.795Z,46.04
2022-11-17T09:12:13.024Z,45.68
2022-11-17T09:17:14.956Z,45.75
2022-11-17T09:22:17.200Z,45.69
2022-11-17T09:27:18.952Z,45.71
2022-11-17T09:32:21.013Z,45.54
2022-11-17T09:37:23.073Z,45.55
2022-11-17T09:42:25.169Z,45.39
2022-11-17T09:47:37.666Z,45.78
2022-11-17T09:53:17.045Z,45.70
2022-11-17T09:58:40.174Z,45.49
2022-11-17T10:03:48.127Z,45.39
2022-11-17T10:09:25.662Z,45.31
2022-11-17T10:14:29.281Z,45.12
2022-11-17T10:19:33.466Z,45.21
2022-11-17T10:24:36.777Z,45.14
2022-11-17T10:29:38.706Z,45.01
2022-11-17T10:34:41.693Z,45.01
2022-11-17T10:39:43.998Z,45.17
2022-11-17T10:44:51.705Z,45.14
2022-11-17T10:50:20.703Z,45.43
2022-11-17T10:55:25.913Z,45.14
2022-11-17T11:00:31.315Z,44.87
2022-11-17T11:05:33.170Z,45.11
2022-11-17T11:10:35.660Z,45.10
2022-11-17T11:15:37.894Z,44.84
2022-11-17T11:20:50.209Z,45.43
2022-11-17T11:25:57.337Z,45.43
2022-11-17T11:31:02.216Z,45.38
2022-11-17T11:36:16.194Z,45.17
2022-11-17T11:41:24.240Z,45.23
2022-11-17T11:47:04.705Z,45.08
2022-11-17T11:52:12.072Z,45.11
2022-11-17T11:57:17.031Z,44.79
2022-11-17T12:02:39.153Z,45.02
2022-11-17T12:07:47.994Z,45.01
2022-11-17T12:12:50.606Z,44.90
2022-11-17T12:17:52.776Z,44.91
2022-11-17T12:23:25.594Z,44.78
2022-11-17T12:28:27.730Z,44.52
2022-11-17T12:33:54.447Z,44.91
2022-11-17T12:38:57.420Z,44.86
2022-11-17T12:44:37.813Z,44.67
2022-11-17T12:49:58.335Z,44.88
2022-11-17T12:55:18.303Z,44.80
2022-11-17T13:00:23.706Z,44.52
2022-11-17T13:05:28.829Z,44.95
2022-11-17T13:10:32.006Z,44.94
2022-11-17T13:15:34.248Z,44.87
2022-11-17T13:20:39.528Z,44.47
2022-11-17T13:25:41.814Z,44.40
2022-11-17T13:30:46.948Z,44.83
2022-11-17T13:35:49.218Z,44.88
2022-11-17T13:40:53.798Z,44.76
2022-11-17T13:45:56.071Z,44.84
2022-11-17T13:51:20.769Z,44.67
2022-11-17T13:56:36.989Z,44.56
2022-11-17T14:01:39.021Z,44.66
2022-11-17T14:07:01.351Z,44.52
2022-11-17T14:12:10.865Z,44.41
2022-11-17T14:17:19.303Z,44.57
2022-11-17T14:22:31.061Z,44.42
2022-11-17T14:27:33.262Z,44.75
2022-11-17T14:32:35.078Z,44.05
2022-11-17T14:37:37.004Z,44.12
2022-11-17T14:42:41.833Z,44.30
2022-11-17T14:47:44.197Z,44.63
2022-11-17T14:52:46.219Z,44.58
2022-11-17T14:57:49.052Z,44.54
2022-11-17T15:02:51.497Z,44.54
2022-11-17T15:07:55.669Z,44.52
2022-11-17T15:12:57.942Z,44.50
2022-11-17T15:18:00.323Z,44.70
2022-11-17T15:23:03.563Z,45.07
2022-11-17T15:28:05.673Z,44.60
2022-11-17T15:33:07.304Z,44.90
2022-11-17T15:38:09.617Z,44.88
2022-11-17T15:43:11.892Z,44.74
2022-11-17T15:48:18.603Z,44.63
2022-11-17T15:53:20.917Z,44.83
2022-11-17T15:58:22.763Z,44.89
2022-11-17T16:03:24.862Z,44.85
2022-11-17T16:08:26.783Z,44.71
2022-11-17T16:13:29.697Z,44.85
2022-11-17T16:18:34.264Z,44.99
2022-11-17T16:23:49.812Z,44.99
2022-11-17T16:29:05.332Z,44.95
2022-11-17T16:34:12.269Z,45.00
2022-11-17T16:39:17.284Z,46.54
2022-11-17T16:44:19.429Z,46.33
2022-11-17T16:49:21.901Z,45.97
2022-11-17T16:54:23.941Z,45.19
2022-11-17T16:59:25.746Z,45.55
2022-11-17T17:04:33.286Z,45.32
2022-11-17T17:09:35.276Z,45.16
2022-11-17T17:14:37.334Z,45.13
2022-11-17T17:19:39.156Z,44.98
2022-11-17T17:24:41.167Z,45.35
2022-11-17T17:29:43.195Z,45.57
2022-11-17T17:34:44.980Z,45.38
2022-11-17T17:39:46.874Z,45.44
2022-11-17T17:44:48.732Z,45.30
2022-11-17T17:49:50.591Z,45.62
2022-11-17T17:54:52.412Z,44.97
2022-11-17T17:59:54.299Z,45.31
2022-11-17T18:04:56.174Z,46.06
2022-11-17T18:09:58.003Z,46.06
2022-11-17T18:15:00.056Z,46.03
2022-11-17T18:20:01.914Z,45.66
2022-11-17T18:25:07.840Z,45.56
2022-11-17T18:30:10.121Z,45.93
2022-11-17T18:35:12.110Z,45.97
2022-11-17T18:40:13.979Z,45.84
2022-11-17T18:45:16.022Z,46.06
2022-11-17T18:50:18.183Z,45.87
2022-11-17T18:55:20.245Z,45.86
2022-11-17T19:00:22.306Z,45.93
2022-11-17T19:05:24.400Z,45.60
2022-11-17T19:10:26.296Z,45.59
2022-11-17T19:15:28.243Z,45.61
2022-11-17T19:20:30.178Z,45.41
2022-11-17T19:25:32.313Z,45.67
2022-11-17T19:30:34.685Z,45.58
2022-11-17T19:35:42.687Z,45.78
2022-11-17T19:40:44.616Z,45.70
2022-11-17T19:45:46.598Z,45.69
2022-11-17T19:50:53.003Z,46.17
2022-11-17T19:56:00.028Z,46.20
2022-11-17T20:01:09.319Z,46.40
2022-11-17T20:06:13.018Z,46.41
2022-11-17T20:11:20.791Z,45.83
2022-11-17T20:16:25.745Z,46.06
2022-11-17T20:21:29.115Z,45.97
2022-11-17T20:26:33.235Z,45.58
2022-11-17T20:31:36.443Z,45.46
2022-11-17T20:36:38.336Z,45.51
2022-11-17T20:41:40.348Z,45.59
2022-11-17T20:46:42.305Z,45.58
2022-11-17T20:51:44.313Z,45.60
2022-11-17T20:56:46.134Z,45.21
2022-11-17T21:01:50.095Z,45.16
2022-11-17T21:06:52.653Z,45.36
2022-11-17T21:11:57.794Z,45.31
2022-11-17T21:17:00.919Z,45.51
2022-11-17T21:22:03.215Z,45.25
2022-11-17T21:27:05.533Z,44.98
2022-11-17T21:32:07.587Z,45.26
2022-11-17T21:37:09.821Z,45.56
2022-11-17T21:42:11.606Z,44.85
2022-11-17T21:47:13.630Z,44.53
2022-11-17T21:52:15.626Z,44.47
2022-11-17T21:57:17.584Z,45.07
2022-11-17T22:02:19.436Z,45.12
2022-11-17T22:07:21.510Z,45.39
2022-11-17T22:12:23.501Z,45.83
2022-11-17T22:17:25.657Z,45.74
2022-11-17T22:22:27.722Z,45.69
2022-11-17T22:27:29.952Z,45.70
2022-11-17T22:32:32.068Z,45.58
2022-11-17T22:37:34.049Z,45.47
2022-11-17T22:42:36.127Z,45.43
2022-11-17T22:47:38.252Z,45.29
2022-11-17T22:52:40.191Z,45.57
2022-11-17T22:57:42.093Z,45.19
2022-11-17T23:02:44.012Z,45.26
2022-11-17T23:07:45.993Z,45.35
2022-11-17T23:12:47.826Z,45.26
2022-11-17T23:17:49.624Z,45.17
2022-11-17T23:22:55.173Z,45.23
2022-11-17T23:27:57.043Z,45.33
2022-11-17T23:32:58.960Z,45.12
2022-11-17T23:38:00.835Z,45.28
2022-11-17T23:43:02.551Z,45.39
2022-11-17T23:48:04.446Z,45.16
2022-11-17T23:53:06.144Z,45.24
2022-11-17T23:58:08.009Z,45.40
